Time;durP1;ratioP1;P1;durP2;ratioP2;P2;SDS_P1;SDS_P2;PMS_P1;PMS_P2;Temp;Humidity;BMP_temperature;BMP_pressure;BME280_temperature;BME280_humidity;BME280_pressure;Samples;Min_cycle;Max_cycle;Signal;HPM_P1;HPM_P2
2023/10/30 00:02:12;;;;;;;0.50;0.30;;;11.20;89.30;;;;;;6245544;22;20076;-78
2023/10/30 00:04:38;;;;;;;0.47;0.40;;;11.20;89.30;;;;;;6247177;22;20000;-78
2023/10/30 00:07:04;;;;;;;0.85;0.43;;;11.20;89.30;;;;;;6246661;22;20685;-77
2023/10/30 00:09:30;;;;;;;0.20;0.20;;;11.10;89.30;;;;;;6272482;22;20022;-79
2023/10/30 00:11:55;;;;;;;0.45;0.45;;;11.20;89.40;;;;;;6271193;22;20011;-76
2023/10/30 00:14:21;;;;;;;0.90;0.40;;;11.10;89.30;;;;;;6238991;22;20020;-76
2023/10/30 00:16:47;;;;;;;1.27;0.70;;;11.10;89.40;;;;;;6246771;22;20004;-78
2023/10/30 00:19:12;;;;;;;0.85;0.55;;;11.10;89.40;;;;;;6218947;22;20047;-77
2023/10/30 00:21:38;;;;;;;1.50;0.65;;;11.20;89.40;;;;;;6220750;22;20075;-77
2023/10/30 00:24:04;;;;;;;1.27;0.43;;;11.20;89.40;;;;;;6220371;22;20008;-77
2023/10/30 00:26:30;;;;;;;1.08;0.45;;;11.10;89.30;;;;;;6213089;22;20000;-78
2023/10/30 00:28:57;;;;;;;1.38;0.50;;;11.20;89.20;;;;;;6239614;22;20451;-78
2023/10/30 00:31:23;;;;;;;1.20;0.60;;;11.20;89.10;;;;;;6245887;22;20003;-80
2023/10/30 00:33:49;;;;;;;0.60;0.60;;;11.20;89.20;;;;;;6246008;22;20001;-77
2023/10/30 00:36:15;;;;;;;1.52;0.52;;;11.20;89.20;;;;;;6271215;22;20022;-77
2023/10/30 00:38:40;;;;;;;1.42;0.52;;;11.20;89.20;;;;;;6245192;22;20023;-77
2023/10/30 00:41:10;;;;;;;1.50;0.40;;;11.30;89.30;;;;;;6270287;22;20021;-76
2023/10/30 00:43:37;;;;;;;2.17;0.60;;;11.20;89.30;;;;;;6217513;22;20044;-76
2023/10/30 00:46:06;;;;;;;4.00;0.50;;;11.30;89.40;;;;;;6242988;22;20016;-78
2023/10/30 00:48:33;;;;;;;1.13;0.55;;;11.30;89.30;;;;;;6243104;22;20032;-77
2023/10/30 00:50:59;;;;;;;1.85;0.52;;;11.30;89.20;;;;;;6221281;22;20019;-77
2023/10/30 00:53:24;;;;;;;1.13;0.50;;;11.40;89.20;;;;;;6219832;22;20018;-79
2023/10/30 00:55:50;;;;;;;2.35;0.60;;;11.40;89.10;;;;;;6241852;22;20012;-77
2023/10/30 00:58:17;;;;;;;1.05;0.70;;;11.40;89.10;;;;;;6265094;22;20008;-77
2023/10/30 01:00:43;;;;;;;1.35;0.47;;;11.40;89.10;;;;;;6265896;22;20047;-77
2023/10/30 01:03:09;;;;;;;3.28;0.60;;;11.40;89.00;;;;;;6244841;22;20024;-77
2023/10/30 01:05:35;;;;;;;2.35;0.63;;;11.50;89.00;;;;;;6244533;22;20012;-77
2023/10/30 01:08:01;;;;;;;1.73;0.68;;;11.50;89.00;;;;;;6269613;22;20000;-77
2023/10/30 01:10:26;;;;;;;1.35;0.50;;;11.50;89.10;;;;;;6245247;22;20329;-78
2023/10/30 01:12:52;;;;;;;0.98;0.40;;;11.50;89.00;;;;;;6216732;22;20088;-78
2023/10/30 01:15:18;;;;;;;1.00;0.55;;;11.50;89.00;;;;;;6240474;22;20027;-78
2023/10/30 01:17:44;;;;;;;1.80;0.63;;;11.50;89.10;;;;;;6244018;22;20000;-77
2023/10/30 01:20:10;;;;;;;1.17;0.43;;;11.50;89.20;;;;;;6269396;22;20007;-77
2023/10/30 01:22:35;;;;;;;2.10;0.60;;;11.50;89.20;;;;;;6271524;22;20022;-78
2023/10/30 01:25:01;;;;;;;2.30;0.60;;;11.50;89.20;;;;;;6245251;22;19992;-78
2023/10/30 01:27:27;;;;;;;0.50;0.50;;;11.50;89.20;;;;;;6219477;22;19980;-76
2023/10/30 01:29:53;;;;;;;2.05;0.50;;;11.50;89.20;;;;;;6243080;22;20039;-77
2023/10/30 01:32:19;;;;;;;0.73;0.30;;;11.50;89.30;;;;;;6267457;22;20004;-77
2023/10/30 01:34:44;;;;;;;0.73;0.38;;;11.50;89.40;;;;;;6215743;22;20011;-79
2023/10/30 01:37:10;;;;;;;1.15;0.45;;;11.50;89.30;;;;;;6216870;22;20052;-77
2023/10/30 01:39:37;;;;;;;0.85;0.40;;;11.50;89.30;;;;;;6239477;22;20028;-77
2023/10/30 01:42:03;;;;;;;1.60;0.40;;;11.50;89.30;;;;;;6235636;22;20031;-77
2023/10/30 01:44:29;;;;;;;2.67;0.75;;;11.50;89.30;;;;;;6245498;22;20012;-77
2023/10/30 01:46:54;;;;;;;1.65;0.57;;;11.60;89.30;;;;;;6271824;22;20023;-77
2023/10/30 01:49:21;;;;;;;0.77;0.43;;;11.60;89.30;;;;;;6219709;22;20020;-77
2023/10/30 01:51:47;;;;;;;1.50;0.50;;;11.60;89.30;;;;;;6191257;22;20032;-78
2023/10/30 01:54:13;;;;;;;1.17;0.50;;;11.60;89.30;;;;;;6243849;22;20012;-78
2023/10/30 01:56:40;;;;;;;1.73;0.50;;;11.60;89.30;;;;;;6269075;22;20027;-77
2023/10/30 01:59:07;;;;;;;0.73;0.50;;;11.60;89.30;;;;;;6217792;22;20000;-78
2023/10/30 02:01:35;;;;;;;0.73;0.50;;;11.70;89.30;;;;;;6270622;22;20046;-77
2023/10/30 02:04:01;;;;;;;1.67;0.77;;;11.60;89.30;;;;;;6244371;22;19996;-77
2023/10/30 02:06:27;;;;;;;1.58;0.60;;;11.60;89.30;;;;;;6218302;22;19984;-77
2023/10/30 02:08:52;;;;;;;1.40;0.65;;;11.70;89.40;;;;;;6216326;22;20024;-77
2023/10/30 02:11:18;;;;;;;0.63;0.47;;;11.70;89.40;;;;;;6241814;22;19996;-78
2023/10/30 02:13:54;;;;;;;0.80;0.50;;;11.70;89.50;;;;;;6267088;22;20022;-77
2023/10/30 02:16:20;;;;;;;1.33;0.40;;;11.70;89.50;;;;;;6237650;23;20011;-77
2023/10/30 02:18:45;;;;;;;1.27;0.50;;;11.70;89.50;;;;;;6266600;22;20606;-77
2023/10/30 02:21:12;;;;;;;1.70;0.50;;;11.70;89.50;;;;;;6214310;22;19997;-77
2023/10/30 02:23:37;;;;;;;2.42;0.60;;;11.70;89.50;;;;;;6245509;22;20012;-77
2023/10/30 02:26:03;;;;;;;0.98;0.40;;;11.70;89.50;;;;;;6271409;22;20006;-78
2023/10/30 02:28:28;;;;;;;2.40;0.40;;;11.80;89.50;;;;;;6218454;22;20027;-76
2023/10/30 02:30:54;;;;;;;1.33;0.50;;;11.80;89.50;;;;;;6219586;22;20011;-77
2023/10/30 02:33:20;;;;;;;2.53;0.50;;;11.70;89.50;;;;;;6218831;22;19992;-77
2023/10/30 02:35:46;;;;;;;1.42;0.70;;;11.70;89.50;;;;;;6244404;22;20013;-77
2023/10/30 02:38:12;;;;;;;0.75;0.43;;;11.70;89.50;;;;;;6267684;22;20007;-76
2023/10/30 02:40:38;;;;;;;1.27;0.47;;;11.80;89.60;;;;;;6267969;22;20019;-76
2023/10/30 02:43:03;;;;;;;2.17;0.60;;;11.80;89.60;;;;;;6241747;22;20042;-77
2023/10/30 02:45:29;;;;;;;0.52;0.40;;;11.80;89.60;;;;;;6192495;22;20523;-77
2023/10/30 02:47:55;;;;;;;1.15;0.63;;;11.80;89.60;;;;;;6270543;22;20015;-77
2023/10/30 02:50:20;;;;;;;0.77;0.40;;;11.80;89.60;;;;;;6235751;22;20015;-77
2023/10/30 02:52:46;;;;;;;1.30;0.52;;;11.80;89.60;;;;;;6242918;22;20032;-78
2023/10/30 02:55:12;;;;;;;1.65;0.60;;;11.80;89.70;;;;;;6271413;22;20000;-78
2023/10/30 02:57:38;;;;;;;1.60;0.50;;;11.70;89.60;;;;;;6269067;22;20000;-77
2023/10/30 03:00:04;;;;;;;1.80;0.60;;;11.70;89.60;;;;;;6244617;22;21838;-77
2023/10/30 03:02:30;;;;;;;1.75;0.35;;;11.80;89.70;;;;;;6271549;22;20021;-78
2023/10/30 03:04:56;;;;;;;1.88;0.63;;;11.80;89.70;;;;;;6218651;22;20000;-78
2023/10/30 03:07:22;;;;;;;1.58;0.40;;;11.80;89.80;;;;;;6270039;22;19996;-77
2023/10/30 03:09:47;;;;;;;0.55;0.20;;;11.70;89.70;;;;;;6216783;22;19995;-77
2023/10/30 03:12:13;;;;;;;3.38;0.70;;;11.70;89.80;;;;;;6238678;22;20004;-78
2023/10/30 03:14:39;;;;;;;0.57;0.40;;;11.80;89.90;;;;;;6248660;22;20004;-78
2023/10/30 03:17:05;;;;;;;1.33;0.57;;;11.70;89.80;;;;;;6219505;22;20027;-77
2023/10/30 03:19:32;;;;;;;0.90;0.40;;;11.70;89.90;;;;;;6219424;22;20012;-77
2023/10/30 03:21:58;;;;;;;0.57;0.40;;;11.70;89.90;;;;;;6245798;22;20103;-77
2023/10/30 03:24:24;;;;;;;2.17;0.40;;;11.80;90.00;;;;;;6271429;22;20012;-78
2023/10/30 03:26:51;;;;;;;1.50;0.50;;;11.70;89.90;;;;;;6219464;22;19993;-77
2023/10/30 03:29:16;;;;;;;0.55;0.22;;;11.70;90.00;;;;;;6245285;22;20016;-77
2023/10/30 03:31:42;;;;;;;1.58;0.50;;;11.70;90.00;;;;;;6239884;22;20058;-77
2023/10/30 03:34:08;;;;;;;0.77;0.40;;;11.70;90.00;;;;;;6246520;22;20007;-78
2023/10/30 03:36:33;;;;;;;2.22;0.50;;;11.70;90.00;;;;;;6272733;22;20012;-77
2023/10/30 03:38:59;;;;;;;0.82;0.45;;;11.70;90.00;;;;;;6272544;22;20043;-77
2023/10/30 03:41:25;;;;;;;0.95;0.50;;;11.70;90.00;;;;;;6245610;22;20004;-77
2023/10/30 03:43:50;;;;;;;0.73;0.52;;;11.70;90.00;;;;;;6246005;22;20063;-79
2023/10/30 03:46:16;;;;;;;2.17;0.57;;;11.60;90.00;;;;;;6245756;22;20000;-78
2023/10/30 03:48:42;;;;;;;1.55;0.30;;;11.60;90.00;;;;;;6248987;22;20007;-78
2023/10/30 03:51:07;;;;;;;0.47;0.40;;;11.60;90.00;;;;;;6271971;22;20019;-77
2023/10/30 03:53:33;;;;;;;1.58;0.30;;;11.60;90.00;;;;;;6265778;22;20012;-77
2023/10/30 03:56:03;;;;;;;0.30;0.30;;;11.60;90.10;;;;;;6271373;22;20000;-78
2023/10/30 03:58:29;;;;;;;0.75;0.40;;;11.60;90.10;;;;;;6226124;23;20028;-76
2023/10/30 04:00:55;;;;;;;1.23;0.50;;;11.60;90.10;;;;;;6215529;23;20020;-78
2023/10/30 04:03:21;;;;;;;0.20;0.20;;;11.50;90.10;;;;;;6150649;23;20138;-77
2023/10/30 04:05:47;;;;;;;0.82;0.30;;;11.40;90.20;;;;;;6125383;23;19998;-77
2023/10/30 04:08:12;;;;;;;0.90;0.30;;;11.40;90.20;;;;;;6141025;23;20018;-77
2023/10/30 04:10:38;;;;;;;0.75;0.47;;;11.40;90.20;;;;;;6125590;23;20038;-76
2023/10/30 04:13:04;;;;;;;1.95;0.50;;;11.40;90.20;;;;;;6146858;23;20034;-78
2023/10/30 04:15:29;;;;;;;1.65;0.45;;;11.40;90.30;;;;;;6142799;23;20074;-77
2023/10/30 04:17:56;;;;;;;0.57;0.35;;;11.40;90.30;;;;;;6146268;23;20030;-77
2023/10/30 04:20:22;;;;;;;1.00;0.40;;;11.40;90.30;;;;;;6150340;23;20061;-78
2023/10/30 04:22:49;;;;;;;0.68;0.30;;;11.40;90.30;;;;;;6150382;23;20026;-77
2023/10/30 04:25:15;;;;;;;0.45;0.30;;;11.40;90.30;;;;;;6124857;23;20002;-77
2023/10/30 04:27:41;;;;;;;1.25;0.40;;;11.30;90.30;;;;;;6125570;23;20078;-76
2023/10/30 04:30:07;;;;;;;0.32;0.30;;;11.30;90.40;;;;;;6101218;23;20053;-77
2023/10/30 04:32:33;;;;;;;0.68;0.47;;;11.30;90.40;;;;;;6100886;23;20036;-77
2023/10/30 04:34:59;;;;;;;0.57;0.45;;;11.30;90.40;;;;;;6222855;23;20001;-77
2023/10/30 04:37:25;;;;;;;1.27;0.50;;;11.20;90.30;;;;;;6215287;23;20008;-76
2023/10/30 04:39:50;;;;;;;0.93;0.40;;;11.30;90.40;;;;;;6215900;23;20040;-77
2023/10/30 04:42:16;;;;;;;0.28;0.22;;;11.20;90.30;;;;;;6241239;23;20017;-80
2023/10/30 04:44:42;;;;;;;0.75;0.40;;;11.20;90.40;;;;;;6206978;23;20012;-77
2023/10/30 04:47:07;;;;;;;1.13;0.32;;;11.20;90.40;;;;;;6240319;23;20012;-79
2023/10/30 04:49:35;;;;;;;0.45;0.20;;;11.20;90.40;;;;;;6215935;23;20020;-77
2023/10/30 04:52:03;;;;;;;0.55;0.30;;;11.20;90.40;;;;;;6241526;23;20080;-77
2023/10/30 04:54:28;;;;;;;1.35;0.30;;;11.10;90.50;;;;;;6241305;23;20001;-77
2023/10/30 04:56:54;;;;;;;0.88;0.30;;;11.20;90.50;;;;;;6240575;23;20017;-77
2023/10/30 04:59:20;;;;;;;0.47;0.30;;;11.20;90.50;;;;;;6177112;23;20425;-77
2023/10/30 05:01:46;;;;;;;0.22;0.22;;;11.10;90.40;;;;;;6215253;23;20008;-77
2023/10/30 05:04:11;;;;;;;2.70;0.50;;;11.10;90.50;;;;;;6207577;23;20013;-78
2023/10/30 05:06:37;;;;;;;1.13;0.38;;;11.00;90.50;;;;;;6237479;23;20024;-77
2023/10/30 05:09:03;;;;;;;0.82;0.30;;;11.00;90.60;;;;;;6190863;23;20000;-77
2023/10/30 05:11:29;;;;;;;1.55;0.30;;;11.10;90.60;;;;;;6241472;23;20004;-78
2023/10/30 05:13:55;;;;;;;0.28;0.28;;;11.00;90.60;;;;;;6191175;23;20011;-77
2023/10/30 05:16:21;;;;;;;0.30;0.30;;;11.00;90.60;;;;;;6190485;23;20004;-78
2023/10/30 05:18:47;;;;;;;0.77;0.40;;;11.10;90.60;;;;;;6214791;23;20024;-79
2023/10/30 05:21:12;;;;;;;2.22;0.50;;;11.00;90.60;;;;;;6165742;23;20016;-78
2023/10/30 05:23:38;;;;;;;2.65;0.47;;;11.10;90.60;;;;;;6191638;23;20005;-77
2023/10/30 05:26:04;;;;;;;0.55;0.32;;;11.10;90.60;;;;;;6241055;23;19992;-77
2023/10/30 05:28:30;;;;;;;1.02;0.43;;;11.00;90.50;;;;;;6237651;23;20360;-77
2023/10/30 05:30:56;;;;;;;0.73;0.35;;;11.10;90.60;;;;;;6238273;23;20012;-77
2023/10/30 05:33:22;;;;;;;0.73;0.32;;;11.10;90.60;;;;;;6205378;23;20004;-77
2023/10/30 05:35:52;;;;;;;0.88;0.40;;;11.10;90.50;;;;;;6240165;23;20001;-77
2023/10/30 05:38:17;;;;;;;0.63;0.30;;;11.10;90.50;;;;;;6187897;23;19997;-78
2023/10/30 05:40:45;;;;;;;0.52;0.30;;;11.10;90.50;;;;;;6215167;23;20023;-77
2023/10/30 05:43:11;;;;;;;1.38;0.32;;;11.10;90.50;;;;;;6205287;23;20001;-77
2023/10/30 05:45:37;;;;;;;2.38;0.45;;;11.10;90.50;;;;;;6209681;23;20019;-77
2023/10/30 05:48:03;;;;;;;1.83;0.43;;;11.10;90.50;;;;;;6214512;23;20012;-77
2023/10/30 05:50:29;;;;;;;0.75;0.40;;;11.20;90.50;;;;;;6213705;23;20060;-76
2023/10/30 05:52:54;;;;;;;1.33;0.50;;;11.20;90.50;;;;;;6240084;23;19997;-78
2023/10/30 05:55:20;;;;;;;0.28;0.28;;;11.20;90.50;;;;;;6189992;23;20011;-77
2023/10/30 05:57:46;;;;;;;1.45;0.47;;;11.20;90.50;;;;;;6241916;23;20008;-78
2023/10/30 06:00:13;;;;;;;1.85;0.38;;;11.20;90.50;;;;;;6213926;23;20087;-78
2023/10/30 06:02:39;;;;;;;1.45;0.45;;;11.10;90.50;;;;;;6215341;23;20396;-79
2023/10/30 06:05:07;;;;;;;0.20;0.20;;;11.20;90.60;;;;;;6188680;23;20068;-78
2023/10/30 06:07:34;;;;;;;0.80;0.40;;;11.10;90.50;;;;;;6214261;23;19997;-79
2023/10/30 06:10:01;;;;;;;0.20;0.20;;;11.10;90.60;;;;;;6215642;23;20031;-78
2023/10/30 06:12:27;;;;;;;0.40;0.30;;;11.10;90.60;;;;;;6213061;23;20093;-78
2023/10/30 06:14:53;;;;;;;0.55;0.30;;;11.10;90.60;;;;;;6241345;23;20017;-79
2023/10/30 06:17:19;;;;;;;1.17;0.40;;;11.10;90.60;;;;;;6216018;23;19996;-79
2023/10/30 06:19:44;;;;;;;0.30;0.30;;;11.00;90.60;;;;;;6206354;23;20092;-76
2023/10/30 06:22:10;;;;;;;0.30;0.20;;;11.00;90.70;;;;;;6218423;23;20000;-75
2023/10/30 06:24:36;;;;;;;0.50;0.30;;;11.00;90.70;;;;;;6213981;23;20000;-76
2023/10/30 06:27:02;;;;;;;1.00;0.40;;;11.00;90.70;;;;;;6159905;23;20088;-76
2023/10/30 06:29:28;;;;;;;0.38;0.30;;;11.00;90.70;;;;;;6213755;23;20004;-76
2023/10/30 06:31:53;;;;;;;0.52;0.40;;;10.90;90.70;;;;;;6137340;23;20114;-76
2023/10/30 06:34:19;;;;;;;0.57;0.30;;;11.00;90.70;;;;;;6214077;23;20074;-76
2023/10/30 06:36:46;;;;;;;3.00;0.40;;;11.00;90.80;;;;;;6187521;23;20024;-76
2023/10/30 06:39:16;;;;;;;0.40;0.30;;;11.00;90.80;;;;;;6186869;23;20056;-76
2023/10/30 06:41:41;;;;;;;0.25;0.25;;;11.00;90.80;;;;;;6186825;23;20008;-76
2023/10/30 06:44:07;;;;;;;0.73;0.30;;;11.00;90.80;;;;;;6213818;23;20418;-76
2023/10/30 06:46:32;;;;;;;1.15;0.30;;;11.00;90.70;;;;;;6187300;23;20001;-76
2023/10/30 06:48:58;;;;;;;0.80;0.30;;;11.00;90.70;;;;;;6213867;23;20005;-75
2023/10/30 06:51:24;;;;;;;0.45;0.30;;;11.00;90.70;;;;;;6162167;23;20015;-76
2023/10/30 06:53:49;;;;;;;0.47;0.30;;;11.00;90.80;;;;;;6186603;23;20001;-76
2023/10/30 06:56:15;;;;;;;0.30;0.30;;;10.90;90.80;;;;;;6214028;23;20325;-76
2023/10/30 06:58:41;;;;;;;1.50;0.30;;;11.00;90.80;;;;;;6188878;23;20005;-76
2023/10/30 07:01:07;;;;;;;1.80;0.35;;;11.00;90.80;;;;;;6216865;23;20035;-76
2023/10/30 07:03:33;;;;;;;1.58;0.40;;;11.10;90.80;;;;;;6216860;23;20005;-76
2023/10/30 07:05:58;;;;;;;0.20;0.20;;;11.10;90.80;;;;;;6188892;23;20405;-76
2023/10/30 07:08:24;;;;;;;1.05;0.20;;;11.20;90.70;;;;;;6165750;23;20065;-74
2023/10/30 07:10:50;;;;;;;1.50;0.50;;;11.20;90.60;;;;;;6203834;23;20866;-75
2023/10/30 07:13:16;;;;;;;1.75;0.50;;;11.20;90.60;;;;;;6204168;23;20001;-77
2023/10/30 07:15:41;;;;;;;1.60;0.57;;;11.30;90.60;;;;;;6180181;23;20005;-75
2023/10/30 07:18:07;;;;;;;1.70;0.50;;;11.30;90.50;;;;;;6232033;23;20024;-75
2023/10/30 07:20:33;;;;;;;3.13;0.65;;;11.40;90.50;;;;;;6233302;23;20000;-76
2023/10/30 07:22:58;;;;;;;2.42;0.50;;;11.40;90.50;;;;;;6210208;23;20016;-75
2023/10/30 07:25:24;;;;;;;1.10;0.65;;;11.40;90.50;;;;;;6234547;23;20001;-76
2023/10/30 07:27:50;;;;;;;0.88;0.40;;;11.40;90.50;;;;;;6232415;23;20000;-75
2023/10/30 07:30:15;;;;;;;0.77;0.40;;;11.40;90.50;;;;;;6207960;23;20015;-75
2023/10/30 07:32:41;;;;;;;1.35;0.40;;;11.40;90.50;;;;;;6184251;23;20039;-75
2023/10/30 07:35:07;;;;;;;0.95;0.30;;;11.30;90.50;;;;;;6210643;23;19997;-75
2023/10/30 07:37:35;;;;;;;1.63;0.40;;;11.40;90.60;;;;;;6194967;23;20001;-76
2023/10/30 07:40:01;;;;;;;1.10;0.40;;;11.40;90.60;;;;;;6215218;23;20013;-75
2023/10/30 07:42:27;;;;;;;1.65;0.65;;;11.40;90.60;;;;;;6216679;23;19996;-77
2023/10/30 07:45:17;;;;;;;1.65;0.50;;;11.50;90.60;;;;;;6159159;23;20009;-78
2023/10/30 07:50:43;;;;;;;3.10;0.68;;;11.60;90.50;;;;;;6016728;23;20019;-76
2023/10/30 07:53:09;;;;;;;1.13;0.50;;;11.60;90.50;;;;;;6025307;23;20007;-79
2023/10/30 07:55:38;;;;;;;0.98;0.52;;;11.60;90.40;;;;;;6017164;23;20011;-78
2023/10/30 07:58:07;;;;;;;1.98;0.50;;;11.60;90.40;;;;;;6054200;23;20020;-77
2023/10/30 08:01:00;;;;;;;0.32;0.30;;;11.60;90.40;;;;;;6140437;23;20025;-77
2023/10/30 08:03:38;;;;;;;1.85;0.43;;;11.60;90.40;;;;;;6117931;23;20037;-77
2023/10/30 08:06:09;;;;;;;1.88;0.50;;;11.70;90.40;;;;;;6030261;23;20404;-78
2023/10/30 08:08:43;;;;;;;0.80;0.28;;;11.70;90.40;;;;;;5980272;23;20080;-77
2023/10/30 08:11:18;;;;;;;1.95;0.60;;;11.70;90.50;;;;;;5946814;24;20008;-77
2023/10/30 08:13:54;;;;;;;1.00;0.50;;;11.70;90.50;;;;;;5925396;24;20065;-77
2023/10/30 08:16:41;;;;;;;1.58;0.80;;;11.70;90.50;;;;;;5838392;24;20018;-78
2023/10/30 08:19:13;;;;;;;1.75;0.70;;;11.70;90.50;;;;;;5847236;24;20018;-77
2023/10/30 08:21:54;;;;;;;2.28;0.70;;;11.90;90.50;;;;;;5837981;24;20066;-78
2023/10/30 08:24:55;;;;;;;1.20;0.60;;;11.80;90.40;;;;;;5813657;24;20026;-77
2023/10/30 08:27:24;;;;;;;0.60;0.50;;;11.90;90.40;;;;;;5795014;24;20047;-78
2023/10/30 08:30:05;;;;;;;1.65;0.70;;;11.90;90.30;;;;;;5811451;24;20023;-77
2023/10/30 08:32:41;;;;;;;;;;;12.00;90.30;;;;;;5759263;24;20028;-77
2023/10/30 08:35:16;;;;;;;0.77;0.43;;;12.00;90.20;;;;;;5759981;24;19944;-76
2023/10/30 08:37:45;;;;;;;0.85;0.52;;;12.10;90.20;;;;;;5754169;24;20043;-77
2023/10/30 08:40:17;;;;;;;0.98;0.52;;;12.20;90.20;;;;;;5731203;24;20012;-77
2023/10/30 08:42:43;;;;;;;1.08;0.60;;;12.20;90.20;;;;;;5781919;24;20024;-76
2023/10/30 08:45:09;;;;;;;1.88;0.63;;;12.30;90.10;;;;;;5793295;24;20036;-77
2023/10/30 08:47:38;;;;;;;2.50;0.80;;;12.40;90.10;;;;;;5790668;24;20011;-76
2023/10/30 08:50:07;;;;;;;1.35;0.50;;;12.40;90.10;;;;;;5771872;24;20023;-76
2023/10/30 08:52:33;;;;;;;1.52;0.60;;;12.50;90.10;;;;;;5779285;24;20014;-76
2023/10/30 08:54:59;;;;;;;0.82;0.45;;;12.50;90.00;;;;;;5844090;24;20014;-76
2023/10/30 08:57:27;;;;;;;2.58;0.60;;;12.60;90.00;;;;;;5860204;24;20054;-76
2023/10/30 08:59:53;;;;;;;1.00;0.43;;;12.60;90.00;;;;;;5960484;23;20076;-76
2023/10/30 09:02:18;;;;;;;1.30;0.47;;;12.60;90.00;;;;;;6036326;23;20475;-76
2023/10/30 09:04:44;;;;;;;1.45;0.60;;;12.60;90.00;;;;;;5985147;23;20462;-76
2023/10/30 09:07:10;;;;;;;2.40;0.63;;;12.60;90.00;;;;;;5984181;23;20071;-76
2023/10/30 09:09:36;;;;;;;2.97;0.60;;;12.60;90.00;;;;;;6038472;23;20006;-76
2023/10/30 09:12:01;;;;;;;1.15;0.55;;;12.70;90.10;;;;;;6075082;23;19998;-76
2023/10/30 09:14:43;;;;;;;1.13;0.57;;;12.70;90.10;;;;;;6114306;23;20514;-77
2023/10/30 09:17:17;;;;;;;3.10;0.80;;;12.70;90.10;;;;;;6048235;23;20027;-77
2023/10/30 09:19:45;;;;;;;1.85;0.80;;;12.80;90.10;;;;;;6103768;23;20487;-76
2023/10/30 09:22:16;;;;;;;1.73;0.70;;;12.80;90.10;;;;;;6055954;23;20018;-77
2023/10/30 09:24:42;;;;;;;1.65;0.57;;;12.80;90.10;;;;;;6025639;23;20033;-76
2023/10/30 09:27:09;;;;;;;1.27;0.45;;;12.80;90.00;;;;;;5999868;23;20011;-77
2023/10/30 09:29:35;;;;;;;1.67;0.60;;;12.90;90.00;;;;;;6012197;23;20019;-76
2023/10/30 09:32:03;;;;;;;1.55;0.55;;;12.90;90.00;;;;;;6034854;23;20030;-77
2023/10/30 09:34:30;;;;;;;1.15;0.50;;;12.90;90.00;;;;;;6013131;23;20460;-76
2023/10/30 09:36:55;;;;;;;0.60;0.50;;;13.00;90.00;;;;;;6040069;23;20011;-74
2023/10/30 09:39:21;;;;;;;1.33;0.40;;;13.10;90.00;;;;;;6070485;23;20317;-74
2023/10/30 09:41:47;;;;;;;1.83;0.70;;;13.10;89.90;;;;;;6101931;23;20466;-75
2023/10/30 09:44:13;;;;;;;2.50;0.70;;;13.20;89.80;;;;;;6098794;23;20022;-75
2023/10/30 09:46:39;;;;;;;0.85;0.52;;;13.10;89.70;;;;;;6108272;23;20006;-77
2023/10/30 09:49:06;;;;;;;1.50;0.70;;;13.20;89.70;;;;;;6148557;23;20017;-75
2023/10/30 09:51:33;;;;;;;3.17;0.50;;;13.30;89.80;;;;;;6174318;23;20021;-76
2023/10/30 09:54:00;;;;;;;1.63;0.50;;;13.30;89.70;;;;;;6156701;23;20441;-77
2023/10/30 09:56:31;;;;;;;0.40;0.40;;;13.30;89.70;;;;;;6187190;23;20000;-77
2023/10/30 09:58:57;;;;;;;2.22;0.63;;;13.30;89.70;;;;;;6158670;23;20035;-77
2023/10/30 10:01:26;;;;;;;2.40;0.90;;;13.40;89.70;;;;;;6183646;23;20001;-75
2023/10/30 10:03:52;;;;;;;0.88;0.40;;;13.40;89.60;;;;;;6163088;23;20066;-76
2023/10/30 10:06:18;;;;;;;3.10;0.80;;;13.50;89.70;;;;;;6161761;23;20017;-77
2023/10/30 10:08:46;;;;;;;1.40;0.40;;;13.60;89.80;;;;;;6162169;23;20340;-76
2023/10/30 10:11:12;;;;;;;1.08;0.60;;;13.50;89.70;;;;;;6155259;23;20437;-77
2023/10/30 10:13:40;;;;;;;1.83;0.50;;;13.60;89.80;;;;;;6162366;23;20035;-77
2023/10/30 10:16:06;;;;;;;1.58;0.50;;;13.60;89.80;;;;;;6183945;23;20059;-77
2023/10/30 10:18:33;;;;;;;1.45;0.70;;;13.60;89.70;;;;;;6161955;23;20007;-77
2023/10/30 10:21:03;;;;;;;0.82;0.35;;;13.70;89.80;;;;;;6187068;23;20021;-77
2023/10/30 10:23:32;;;;;;;0.75;0.55;;;13.70;89.70;;;;;;6185490;23;20008;-76
2023/10/30 10:26:03;;;;;;;1.52;0.45;;;13.70;89.60;;;;;;6185021;23;20009;-76
2023/10/30 10:28:30;;;;;;;0.95;0.47;;;13.70;89.60;;;;;;6214043;23;20020;-76
2023/10/30 10:30:55;;;;;;;2.47;0.60;;;13.70;89.60;;;;;;6192422;23;20013;-77
2023/10/30 10:33:23;;;;;;;1.95;0.60;;;13.70;89.50;;;;;;6190319;23;19996;-76
2023/10/30 10:35:53;;;;;;;2.85;0.63;;;13.70;89.60;;;;;;6167248;23;20004;-76
2023/10/30 10:38:21;;;;;;;1.20;0.60;;;13.70;89.60;;;;;;6206199;23;20409;-75
2023/10/30 10:40:48;;;;;;;1.15;0.63;;;13.70;89.70;;;;;;6222318;23;20005;-77
2023/10/30 10:43:18;;;;;;;1.17;0.50;;;13.80;89.70;;;;;;6165343;23;20012;-76
2023/10/30 10:45:49;;;;;;;1.25;0.50;;;13.70;90.10;;;;;;6188150;23;20397;-75
2023/10/30 10:48:16;;;;;;;;;;;13.70;89.70;;;;;;6203924;23;20007;-75
2023/10/30 10:50:43;;;;;;;0.22;0.22;;;13.80;89.70;;;;;;6226699;23;20343;-77
2023/10/30 10:53:10;;;;;;;1.15;0.40;;;13.80;89.80;;;;;;6158832;23;20421;-77
2023/10/30 10:55:46;;;;;;;1.35;0.60;;;13.80;89.80;;;;;;6187106;23;20000;-77
2023/10/30 10:58:19;;;;;;;1.58;0.35;;;13.90;89.90;;;;;;6155348;23;20008;-76
2023/10/30 11:00:48;;;;;;;1.77;0.60;;;13.90;90.00;;;;;;6186558;23;20011;-77
2023/10/30 11:03:15;;;;;;;0.68;0.40;;;13.80;89.80;;;;;;6161098;23;20084;-77
2023/10/30 11:05:43;;;;;;;1.65;0.45;;;13.90;89.90;;;;;;6161429;23;20455;-78
2023/10/30 11:08:36;;;;;;;1.08;0.47;;;13.80;89.60;;;;;;6160613;23;20013;-78
2023/10/30 11:11:15;;;;;;;0.93;0.32;;;13.90;89.70;;;;;;6073601;23;20015;-77
2023/10/30 11:14:03;;;;;;;0.57;0.35;;;14.00;89.60;;;;;;6085030;23;20019;-78
2023/10/30 11:16:38;;;;;;;0.75;0.30;;;14.00;89.60;;;;;;6066965;23;20007;-76
2023/10/30 11:19:07;;;;;;;0.35;0.30;;;14.10;89.60;;;;;;6092172;23;20007;-76
2023/10/30 11:21:34;;;;;;;0.40;0.40;;;14.10;89.60;;;;;;6040826;23;20097;-77
2023/10/30 11:24:00;;;;;;;1.02;0.47;;;14.20;89.60;;;;;;6092296;23;20017;-75
2023/10/30 11:26:43;;;;;;;1.70;0.40;;;14.30;89.50;;;;;;6067484;23;20089;-76
2023/10/30 11:29:12;;;;;;;0.93;0.47;;;14.20;89.40;;;;;;6070259;23;20010;-76
2023/10/30 11:31:56;;;;;;;0.40;0.40;;;14.20;89.40;;;;;;6091518;23;20500;-75
2023/10/30 11:34:31;;;;;;;1.05;0.47;;;14.20;89.40;;;;;;6091535;23;20003;-76
2023/10/30 11:37:01;;;;;;;1.25;0.40;;;14.30;89.40;;;;;;6212211;23;20009;-74
2023/10/30 11:39:27;;;;;;;1.00;0.43;;;14.30;89.40;;;;;;6179622;23;20040;-74
2023/10/30 11:41:53;;;;;;;0.70;0.50;;;14.30;89.30;;;;;;6213826;23;20001;-74
2023/10/30 11:44:20;;;;;;;0.90;0.50;;;14.40;89.30;;;;;;6213855;23;20005;-74
2023/10/30 11:46:51;;;;;;;0.30;0.30;;;14.30;89.30;;;;;;6188050;23;20005;-74
2023/10/30 11:49:19;;;;;;;;;;;14.30;89.40;;;;;;6215195;23;20373;-75
2023/10/30 11:51:46;;;;;;;0.52;0.40;;;14.30;89.40;;;;;;6213836;23;19912;-75
2023/10/30 11:54:21;;;;;;;0.90;0.40;;;14.30;89.30;;;;;;6214683;23;20027;-77
2023/10/30 11:56:48;;;;;;;1.00;0.52;;;14.40;89.40;;;;;;6213999;23;20007;-77
2023/10/30 11:59:15;;;;;;;0.40;0.40;;;14.40;89.40;;;;;;6183798;23;20013;-77
2023/10/30 12:01:43;;;;;;;0.52;0.40;;;14.30;89.40;;;;;;6187491;23;20008;-77
2023/10/30 12:04:09;;;;;;;0.95;0.50;;;14.30;89.60;;;;;;6182900;23;20441;-77
2023/10/30 12:06:35;;;;;;;0.80;0.50;;;14.30;89.70;;;;;;6214278;23;20005;-76
2023/10/30 12:09:05;;;;;;;0.40;0.30;;;14.20;89.70;;;;;;6187628;23;20067;-77
2023/10/30 12:11:31;;;;;;;0.40;0.30;;;14.20;89.90;;;;;;6214010;23;20019;-77
2023/10/30 12:13:58;;;;;;;1.30;0.63;;;14.10;90.00;;;;;;6158351;23;20884;-77
2023/10/30 12:16:25;;;;;;;1.45;0.30;;;14.20;90.00;;;;;;6187902;23;20430;-77
2023/10/30 12:27:02;;;;;;;1.60;0.40;;;14.10;90.10;;;;;;6089274;23;20047;-78
2023/10/30 12:48:23;;;;;;;0.52;0.30;;;14.10;90.10;;;;;;5918732;24;20036;-78
2023/10/30 12:50:48;;;;;;;0.40;0.25;;;14.10;90.10;;;;;;5934070;24;20020;-75
2023/10/30 12:57:16;;;;;;;0.93;0.45;;;14.10;90.10;;;;;;5919171;24;20469;-77
2023/10/30 12:59:52;;;;;;;0.30;0.30;;;14.20;90.10;;;;;;5933199;23;20024;-77
2023/10/30 13:05:43;;;;;;;0.28;0.28;;;14.10;90.20;;;;;;6145805;23;20403;-78
2023/10/30 13:09:00;;;;;;;0.73;0.30;;;14.20;90.20;;;;;;6031434;23;20436;-78
2023/10/30 13:15:03;;;;;;;0.22;0.20;;;14.20;90.20;;;;;;5892706;24;20017;-78
2023/10/30 13:17:29;;;;;;;0.25;0.25;;;14.10;90.20;;;;;;5839972;24;20498;-76
2023/10/30 13:19:55;;;;;;;0.20;0.20;;;14.10;90.20;;;;;;5819991;24;20098;-76
2023/10/30 13:22:26;;;;;;;0.38;0.20;;;14.10;90.20;;;;;;5841660;24;20025;-76
2023/10/30 13:24:51;;;;;;;;;;;14.20;90.20;;;;;;5842158;24;20021;-74
2023/10/30 13:27:17;;;;;;;0.30;0.30;;;14.30;90.20;;;;;;5841853;24;20242;-75
2023/10/30 13:29:43;;;;;;;0.10;0.10;;;14.40;90.10;;;;;;5841793;24;20018;-75
2023/10/30 13:32:08;;;;;;;0.20;0.20;;;14.50;90.10;;;;;;5841881;24;20026;-75